Terminal Aerodrome Forecast
Issued by NWS Knoxville/Tri Cities, TN

Current Version | Previous Version | Text Only | Print | Product List | Glossary On
Versions: 1 2 3 4 5 6 7 8 9 10 11 12 13 14 15 16 17 18 19 20 21 22 23 24 25 26 27 28
000
FTUS44 KMRX 230531
TAFTRI
TAF
KTRI 230531Z 2306/2406 00000KT P6SM FEW050 BKN200
     FM230900 00000KT 4SM BR BKN120
     FM231300 00000KT P6SM SCT100 BKN200
     FM231800 25007KT P6SM VCTS SCT035CB BKN250
     FM240100 27003KT P6SM VCTS SCT035CB BKN150 BKN250
     FM240500 00000KT 4SM BR OVC100=

USA.gov is the U.S. government's official web portal to all federal, state and local government web resources and services.